sensor_id;sensor_type;location;lat;lon;timestamp;P1;durP1;ratioP1;P2;durP2;ratioP2
7179;SDS011;3631;42.152;24.756;2022-07-05T00:01:17;3.28;;;2.78;;
7179;SDS011;3631;42.152;24.756;2022-07-05T00:03:44;3.22;;;2.78;;
7179;SDS011;3631;42.152;24.756;2022-07-05T00:06:12;7.22;;;2.70;;
7179;SDS011;3631;42.152;24.756;2022-07-05T00:08:39;3.45;;;3.20;;
7179;SDS011;3631;42.152;24.756;2022-07-05T00:11:05;3.80;;;2.90;;
7179;SDS011;3631;42.152;24.756;2022-07-05T00:13:32;3.90;;;3.05;;
7179;SDS011;3631;42.152;24.756;2022-07-05T00:15:59;3.03;;;2.83;;
7179;SDS011;3631;42.152;24.756;2022-07-05T00:18:28;4.97;;;3.20;;
7179;SDS011;3631;42.152;24.756;2022-07-05T00:20:55;4.22;;;3.10;;
7179;SDS011;3631;42.152;24.756;2022-07-05T00:23:22;7.63;;;3.42;;
7179;SDS011;3631;42.152;24.756;2022-07-05T00:25:48;6.57;;;3.50;;
7179;SDS011;3631;42.152;24.756;2022-07-05T00:28:15;3.97;;;3.53;;
7179;SDS011;3631;42.152;24.756;2022-07-05T00:30:42;3.63;;;3.33;;
7179;SDS011;3631;42.152;24.756;2022-07-05T00:33:09;3.15;;;2.92;;
7179;SDS011;3631;42.152;24.756;2022-07-05T00:35:38;6.10;;;3.42;;
7179;SDS011;3631;42.152;24.756;2022-07-05T00:38:05;3.78;;;3.47;;
7179;SDS011;3631;42.152;24.756;2022-07-05T00:40:32;4.13;;;3.83;;
7179;SDS011;3631;42.152;24.756;2022-07-05T00:42:59;4.32;;;3.40;;
7179;SDS011;3631;42.152;24.756;2022-07-05T00:45:25;4.15;;;3.75;;
7179;SDS011;3631;42.152;24.756;2022-07-05T00:47:52;6.45;;;3.75;;
7179;SDS011;3631;42.152;24.756;2022-07-05T00:50:19;5.00;;;3.35;;
7179;SDS011;3631;42.152;24.756;2022-07-05T00:52:48;3.53;;;3.25;;
7179;SDS011;3631;42.152;24.756;2022-07-05T00:55:15;3.67;;;3.35;;
7179;SDS011;3631;42.152;24.756;2022-07-05T00:57:42;3.85;;;3.35;;
7179;SDS011;3631;42.152;24.756;2022-07-05T01:00:10;4.05;;;3.65;;
7179;SDS011;3631;42.152;24.756;2022-07-05T01:02:38;4.50;;;3.92;;
7179;SDS011;3631;42.152;24.756;2022-07-05T01:05:05;4.22;;;3.92;;
7179;SDS011;3631;42.152;24.756;2022-07-05T01:07:32;3.70;;;3.42;;
7179;SDS011;3631;42.152;24.756;2022-07-05T01:10:03;4.00;;;3.33;;
7179;SDS011;3631;42.152;24.756;2022-07-05T01:12:30;3.58;;;3.30;;
7179;SDS011;3631;42.152;24.756;2022-07-05T01:14:57;6.07;;;3.38;;
7179;SDS011;3631;42.152;24.756;2022-07-05T01:17:24;3.33;;;3.13;;
7179;SDS011;3631;42.152;24.756;2022-07-05T01:19:51;5.43;;;3.38;;
7179;SDS011;3631;42.152;24.756;2022-07-05T01:22:20;4.22;;;3.08;;
7179;SDS011;3631;42.152;24.756;2022-07-05T01:24:51;3.63;;;3.20;;
7179;SDS011;3631;42.152;24.756;2022-07-05T01:27:19;4.10;;;2.80;;
7179;SDS011;3631;42.152;24.756;2022-07-05T01:29:46;7.32;;;2.97;;
7179;SDS011;3631;42.152;24.756;2022-07-05T01:32:14;4.65;;;3.45;;
7179;SDS011;3631;42.152;24.756;2022-07-05T01:34:41;3.92;;;3.13;;
7179;SDS011;3631;42.152;24.756;2022-07-05T01:37:08;4.78;;;3.47;;
7179;SDS011;3631;42.152;24.756;2022-07-05T01:39:36;3.38;;;3.17;;
7179;SDS011;3631;42.152;24.756;2022-07-05T01:42:05;4.30;;;3.30;;
7179;SDS011;3631;42.152;24.756;2022-07-05T01:44:32;4.97;;;3.53;;
7179;SDS011;3631;42.152;24.756;2022-07-05T01:47:02;5.30;;;3.47;;
7179;SDS011;3631;42.152;24.756;2022-07-05T01:49:36;4.55;;;3.33;;
7179;SDS011;3631;42.152;24.756;2022-07-05T01:52:08;5.22;;;3.00;;
7179;SDS011;3631;42.152;24.756;2022-07-05T01:54:36;6.00;;;3.30;;
7179;SDS011;3631;42.152;24.756;2022-07-05T01:57:05;5.60;;;3.55;;
7179;SDS011;3631;42.152;24.756;2022-07-05T01:59:33;4.75;;;3.45;;
7179;SDS011;3631;42.152;24.756;2022-07-05T02:02:01;5.13;;;3.65;;
7179;SDS011;3631;42.152;24.756;2022-07-05T02:04:29;9.20;;;3.55;;
7179;SDS011;3631;42.152;24.756;2022-07-05T02:06:56;3.28;;;3.08;;
7179;SDS011;3631;42.152;24.756;2022-07-05T02:09:23;3.78;;;3.58;;
7179;SDS011;3631;42.152;24.756;2022-07-05T02:11:50;5.65;;;3.78;;
7179;SDS011;3631;42.152;24.756;2022-07-05T02:14:18;4.45;;;2.83;;
7179;SDS011;3631;42.152;24.756;2022-07-05T02:16:46;5.40;;;3.35;;
7179;SDS011;3631;42.152;24.756;2022-07-05T02:19:13;4.13;;;3.38;;
7179;SDS011;3631;42.152;24.756;2022-07-05T02:21:40;6.22;;;3.30;;
7179;SDS011;3631;42.152;24.756;2022-07-05T02:24:07;13.18;;;3.90;;
7179;SDS011;3631;42.152;24.756;2022-07-05T02:26:35;3.80;;;3.50;;
7179;SDS011;3631;42.152;24.756;2022-07-05T02:29:02;4.95;;;4.43;;
7179;SDS011;3631;42.152;24.756;2022-07-05T02:31:31;4.00;;;3.70;;
7179;SDS011;3631;42.152;24.756;2022-07-05T02:33:59;4.68;;;4.05;;
7179;SDS011;3631;42.152;24.756;2022-07-05T02:36:26;5.47;;;4.35;;
7179;SDS011;3631;42.152;24.756;2022-07-05T02:38:53;5.20;;;4.00;;
7179;SDS011;3631;42.152;24.756;2022-07-05T02:41:20;3.90;;;3.60;;
7179;SDS011;3631;42.152;24.756;2022-07-05T02:43:47;4.25;;;3.85;;
7179;SDS011;3631;42.152;24.756;2022-07-05T02:46:14;6.35;;;4.03;;
7179;SDS011;3631;42.152;24.756;2022-07-05T02:48:42;4.93;;;3.88;;
7179;SDS011;3631;42.152;24.756;2022-07-05T02:51:09;4.32;;;3.92;;
7179;SDS011;3631;42.152;24.756;2022-07-05T02:53:36;4.32;;;3.47;;
7179;SDS011;3631;42.152;24.756;2022-07-05T02:56:03;8.27;;;4.00;;
7179;SDS011;3631;42.152;24.756;2022-07-05T02:58:30;8.40;;;4.18;;
7179;SDS011;3631;42.152;24.756;2022-07-05T03:00:57;5.57;;;3.80;;
7179;SDS011;3631;42.152;24.756;2022-07-05T03:03:24;4.68;;;4.28;;
7179;SDS011;3631;42.152;24.756;2022-07-05T03:05:52;12.02;;;4.72;;
7179;SDS011;3631;42.152;24.756;2022-07-05T03:08:19;6.60;;;4.50;;
7179;SDS011;3631;42.152;24.756;2022-07-05T03:10:46;10.18;;;4.55;;
7179;SDS011;3631;42.152;24.756;2022-07-05T03:13:13;8.00;;;4.30;;
7179;SDS011;3631;42.152;24.756;2022-07-05T03:15:40;4.18;;;3.88;;
7179;SDS011;3631;42.152;24.756;2022-07-05T03:18:08;4.50;;;4.20;;
7179;SDS011;3631;42.152;24.756;2022-07-05T03:20:35;6.03;;;4.15;;
7179;SDS011;3631;42.152;24.756;2022-07-05T03:23:03;4.18;;;3.95;;
7179;SDS011;3631;42.152;24.756;2022-07-05T03:25:30;7.60;;;4.80;;
7179;SDS011;3631;42.152;24.756;2022-07-05T03:27:57;8.40;;;4.85;;
7179;SDS011;3631;42.152;24.756;2022-07-05T03:30:24;6.07;;;5.05;;
7179;SDS011;3631;42.152;24.756;2022-07-05T03:32:51;10.38;;;4.57;;
7179;SDS011;3631;42.152;24.756;2022-07-05T03:35:18;4.93;;;4.50;;
7179;SDS011;3631;42.152;24.756;2022-07-05T03:37:45;4.95;;;4.45;;
7179;SDS011;3631;42.152;24.756;2022-07-05T03:40:14;6.25;;;4.28;;
7179;SDS011;3631;42.152;24.756;2022-07-05T03:42:41;9.68;;;4.40;;
7179;SDS011;3631;42.152;24.756;2022-07-05T03:45:08;5.88;;;4.82;;
7179;SDS011;3631;42.152;24.756;2022-07-05T03:47:36;5.40;;;4.88;;
7179;SDS011;3631;42.152;24.756;2022-07-05T03:50:03;4.47;;;3.90;;
7179;SDS011;3631;42.152;24.756;2022-07-05T03:52:31;9.95;;;4.93;;
7179;SDS011;3631;42.152;24.756;2022-07-05T03:54:58;46.72;;;6.75;;
7179;SDS011;3631;42.152;24.756;2022-07-05T03:57:26;14.43;;;5.05;;
7179;SDS011;3631;42.152;24.756;2022-07-05T03:59:53;18.00;;;5.30;;
7179;SDS011;3631;42.152;24.756;2022-07-05T04:02:20;39.15;;;6.22;;
7179;SDS011;3631;42.152;24.756;2022-07-05T04:04:47;17.55;;;4.32;;
7179;SDS011;3631;42.152;24.756;2022-07-05T04:07:13;5.63;;;4.32;;
7179;SDS011;3631;42.152;24.756;2022-07-05T04:09:40;11.95;;;4.72;;
7179;SDS011;3631;42.152;24.756;2022-07-05T04:12:07;10.18;;;4.63;;
7179;SDS011;3631;42.152;24.756;2022-07-05T04:14:36;4.75;;;4.18;;
7179;SDS011;3631;42.152;24.756;2022-07-05T04:17:03;4.82;;;4.20;;
7179;SDS011;3631;42.152;24.756;2022-07-05T04:19:30;8.00;;;4.63;;
7179;SDS011;3631;42.152;24.756;2022-07-05T04:21:57;4.40;;;4.10;;
7179;SDS011;3631;42.152;24.756;2022-07-05T04:24:24;6.05;;;4.35;;
7179;SDS011;3631;42.152;24.756;2022-07-05T04:26:51;9.50;;;4.60;;
7179;SDS011;3631;42.152;24.756;2022-07-05T04:29:18;6.03;;;4.82;;
7179;SDS011;3631;42.152;24.756;2022-07-05T04:31:46;7.85;;;4.68;;
7179;SDS011;3631;42.152;24.756;2022-07-05T04:34:13;10.18;;;4.78;;
7179;SDS011;3631;42.152;24.756;2022-07-05T04:36:40;8.50;;;4.55;;
7179;SDS011;3631;42.152;24.756;2022-07-05T04:39:07;7.50;;;4.60;;
7179;SDS011;3631;42.152;24.756;2022-07-05T04:41:34;9.23;;;4.77;;
7179;SDS011;3631;42.152;24.756;2022-07-05T04:44:01;4.35;;;4.05;;
7179;SDS011;3631;42.152;24.756;2022-07-05T04:46:29;8.85;;;4.47;;
7179;SDS011;3631;42.152;24.756;2022-07-05T04:48:57;4.85;;;4.35;;
7179;SDS011;3631;42.152;24.756;2022-07-05T04:51:24;5.88;;;4.22;;
7179;SDS011;3631;42.152;24.756;2022-07-05T04:53:51;5.25;;;4.40;;
7179;SDS011;3631;42.152;24.756;2022-07-05T04:56:18;9.90;;;4.30;;
7179;SDS011;3631;42.152;24.756;2022-07-05T04:58:45;5.32;;;4.80;;
7179;SDS011;3631;42.152;24.756;2022-07-05T05:01:12;9.88;;;4.10;;
7179;SDS011;3631;42.152;24.756;2022-07-05T05:03:39;18.85;;;4.57;;
7179;SDS011;3631;42.152;24.756;2022-07-05T05:06:07;13.50;;;5.00;;
7179;SDS011;3631;42.152;24.756;2022-07-05T05:08:34;10.02;;;5.00;;
7179;SDS011;3631;42.152;24.756;2022-07-05T05:11:01;8.57;;;4.93;;
7179;SDS011;3631;42.152;24.756;2022-07-05T05:13:28;11.23;;;4.40;;
7179;SDS011;3631;42.152;24.756;2022-07-05T05:15:55;12.15;;;6.20;;
7179;SDS011;3631;42.152;24.756;2022-07-05T05:18:22;9.80;;;4.13;;
7179;SDS011;3631;42.152;24.756;2022-07-05T05:20:52;9.80;;;4.57;;
7179;SDS011;3631;42.152;24.756;2022-07-05T05:23:21;8.32;;;4.70;;
7179;SDS011;3631;42.152;24.756;2022-07-05T05:25:48;8.30;;;4.78;;
7179;SDS011;3631;42.152;24.756;2022-07-05T05:28:16;7.32;;;5.07;;
7179;SDS011;3631;42.152;24.756;2022-07-05T05:30:43;9.10;;;5.20;;
7179;SDS011;3631;42.152;24.756;2022-07-05T05:33:10;9.38;;;4.80;;
7179;SDS011;3631;42.152;24.756;2022-07-05T05:35:37;8.60;;;4.80;;
7179;SDS011;3631;42.152;24.756;2022-07-05T05:38:04;8.45;;;4.80;;
7179;SDS011;3631;42.152;24.756;2022-07-05T05:40:32;6.38;;;4.82;;
7179;SDS011;3631;42.152;24.756;2022-07-05T05:42:59;6.72;;;4.47;;
7179;SDS011;3631;42.152;24.756;2022-07-05T05:45:26;11.27;;;5.75;;
7179;SDS011;3631;42.152;24.756;2022-07-05T05:47:54;5.55;;;5.07;;
7179;SDS011;3631;42.152;24.756;2022-07-05T05:50:22;11.48;;;5.40;;
7179;SDS011;3631;42.152;24.756;2022-07-05T05:52:50;7.93;;;5.40;;
7179;SDS011;3631;42.152;24.756;2022-07-05T05:55:17;9.30;;;6.35;;
7179;SDS011;3631;42.152;24.756;2022-07-05T05:57:47;14.35;;;5.43;;
7179;SDS011;3631;42.152;24.756;2022-07-05T06:00:14;6.43;;;5.20;;
7179;SDS011;3631;42.152;24.756;2022-07-05T06:02:42;8.55;;;4.88;;
7179;SDS011;3631;42.152;24.756;2022-07-05T06:05:10;7.43;;;4.80;;
7179;SDS011;3631;42.152;24.756;2022-07-05T06:07:46;8.73;;;4.40;;
7179;SDS011;3631;42.152;24.756;2022-07-05T06:10:15;10.88;;;5.03;;
7179;SDS011;3631;42.152;24.756;2022-07-05T06:12:43;6.40;;;4.20;;
7179;SDS011;3631;42.152;24.756;2022-07-05T06:15:12;10.00;;;4.18;;
7179;SDS011;3631;42.152;24.756;2022-07-05T06:17:39;5.20;;;4.25;;
7179;SDS011;3631;42.152;24.756;2022-07-05T06:20:07;4.70;;;3.70;;
7179;SDS011;3631;42.152;24.756;2022-07-05T06:22:35;8.02;;;4.43;;
7179;SDS011;3631;42.152;24.756;2022-07-05T06:25:02;10.73;;;4.50;;
7179;SDS011;3631;42.152;24.756;2022-07-05T06:27:29;11.23;;;4.40;;
7179;SDS011;3631;42.152;24.756;2022-07-05T06:29:56;4.63;;;4.20;;
7179;SDS011;3631;42.152;24.756;2022-07-05T06:32:24;4.25;;;3.88;;
7179;SDS011;3631;42.152;24.756;2022-07-05T06:34:51;6.70;;;4.22;;
7179;SDS011;3631;42.152;24.756;2022-07-05T06:37:18;8.02;;;4.22;;
7179;SDS011;3631;42.152;24.756;2022-07-05T06:39:45;7.90;;;4.55;;
7179;SDS011;3631;42.152;24.756;2022-07-05T06:42:12;4.80;;;4.43;;
7179;SDS011;3631;42.152;24.756;2022-07-05T06:44:39;5.15;;;4.38;;
7179;SDS011;3631;42.152;24.756;2022-07-05T06:47:07;10.52;;;4.53;;
7179;SDS011;3631;42.152;24.756;2022-07-05T06:49:35;5.90;;;4.80;;
7179;SDS011;3631;42.152;24.756;2022-07-05T06:52:03;11.75;;;4.78;;
7179;SDS011;3631;42.152;24.756;2022-07-05T06:54:30;6.40;;;3.95;;
7179;SDS011;3631;42.152;24.756;2022-07-05T06:56:57;10.57;;;4.88;;
7179;SDS011;3631;42.152;24.756;2022-07-05T06:59:24;6.88;;;5.07;;
7179;SDS011;3631;42.152;24.756;2022-07-05T07:01:51;4.43;;;3.95;;
7179;SDS011;3631;42.152;24.756;2022-07-05T07:04:18;7.10;;;4.40;;
7179;SDS011;3631;42.152;24.756;2022-07-05T07:06:46;6.40;;;4.30;;
7179;SDS011;3631;42.152;24.756;2022-07-05T07:09:13;4.07;;;3.67;;
7179;SDS011;3631;42.152;24.756;2022-07-05T07:11:47;4.47;;;3.78;;
7179;SDS011;3631;42.152;24.756;2022-07-05T07:14:14;5.85;;;3.95;;
7179;SDS011;3631;42.152;24.756;2022-07-05T07:16:42;9.57;;;5.88;;
7179;SDS011;3631;42.152;24.756;2022-07-05T07:19:09;6.22;;;4.70;;
7179;SDS011;3631;42.152;24.756;2022-07-05T07:21:36;8.65;;;5.03;;
7179;SDS011;3631;42.152;24.756;2022-07-05T07:24:04;9.00;;;4.60;;
7179;SDS011;3631;42.152;24.756;2022-07-05T07:26:32;8.38;;;4.88;;
7179;SDS011;3631;42.152;24.756;2022-07-05T07:29:19;9.00;;;4.05;;
7179;SDS011;3631;42.152;24.756;2022-07-05T07:31:46;7.15;;;4.13;;
7179;SDS011;3631;42.152;24.756;2022-07-05T07:34:13;6.47;;;5.78;;
7179;SDS011;3631;42.152;24.756;2022-07-05T07:36:40;12.70;;;5.00;;
7179;SDS011;3631;42.152;24.756;2022-07-05T07:39:08;4.85;;;3.92;;
7179;SDS011;3631;42.152;24.756;2022-07-05T07:41:35;13.05;;;4.65;;
7179;SDS011;3631;42.152;24.756;2022-07-05T07:44:02;8.68;;;4.45;;
7179;SDS011;3631;42.152;24.756;2022-07-05T07:46:29;7.40;;;4.57;;
7179;SDS011;3631;42.152;24.756;2022-07-05T07:48:56;4.97;;;4.50;;
7179;SDS011;3631;42.152;24.756;2022-07-05T07:51:23;6.50;;;4.47;;
7179;SDS011;3631;42.152;24.756;2022-07-05T07:53:50;11.45;;;4.95;;
7179;SDS011;3631;42.152;24.756;2022-07-05T07:56:19;9.98;;;4.35;;
7179;SDS011;3631;42.152;24.756;2022-07-05T07:58:46;17.15;;;4.47;;
7179;SDS011;3631;42.152;24.756;2022-07-05T08:01:13;5.35;;;4.22;;
7179;SDS011;3631;42.152;24.756;2022-07-05T08:03:40;4.38;;;4.03;;
7179;SDS011;3631;42.152;24.756;2022-07-05T08:06:07;6.07;;;4.03;;
7179;SDS011;3631;42.152;24.756;2022-07-05T08:08:35;6.97;;;4.50;;
7179;SDS011;3631;42.152;24.756;2022-07-05T08:11:03;7.47;;;4.32;;
7179;SDS011;3631;42.152;24.756;2022-07-05T08:13:32;4.72;;;4.32;;
7179;SDS011;3631;42.152;24.756;2022-07-05T08:15:59;8.90;;;4.55;;
7179;SDS011;3631;42.152;24.756;2022-07-05T08:18:26;8.13;;;4.18;;
7179;SDS011;3631;42.152;24.756;2022-07-05T08:21:10;4.93;;;4.20;;
7179;SDS011;3631;42.152;24.756;2022-07-05T08:23:54;5.22;;;3.97;;
7179;SDS011;3631;42.152;24.756;2022-07-05T08:26:21;4.10;;;3.90;;
7179;SDS011;3631;42.152;24.756;2022-07-05T08:28:49;9.18;;;3.60;;
7179;SDS011;3631;42.152;24.756;2022-07-05T08:31:16;6.00;;;3.80;;
7179;SDS011;3631;42.152;24.756;2022-07-05T08:33:43;7.93;;;3.85;;
7179;SDS011;3631;42.152;24.756;2022-07-05T08:36:10;13.15;;;4.05;;
7179;SDS011;3631;42.152;24.756;2022-07-05T08:38:37;7.78;;;3.60;;
7179;SDS011;3631;42.152;24.756;2022-07-05T08:41:04;10.10;;;4.05;;
7179;SDS011;3631;42.152;24.756;2022-07-05T08:43:34;7.10;;;3.75;;
7179;SDS011;3631;42.152;24.756;2022-07-05T08:46:07;5.07;;;3.72;;
7179;SDS011;3631;42.152;24.756;2022-07-05T08:48:36;4.90;;;3.47;;
7179;SDS011;3631;42.152;24.756;2022-07-05T08:51:08;4.50;;;3.60;;
7179;SDS011;3631;42.152;24.756;2022-07-05T08:53:38;8.20;;;3.58;;
7179;SDS011;3631;42.152;24.756;2022-07-05T08:56:07;9.77;;;3.88;;
7179;SDS011;3631;42.152;24.756;2022-07-05T08:58:35;5.65;;;3.70;;
7179;SDS011;3631;42.152;24.756;2022-07-05T09:01:02;10.20;;;3.53;;
7179;SDS011;3631;42.152;24.756;2022-07-05T09:03:32;5.60;;;4.30;;
7179;SDS011;3631;42.152;24.756;2022-07-05T09:06:00;7.43;;;4.05;;
7179;SDS011;3631;42.152;24.756;2022-07-05T09:08:29;5.07;;;4.07;;
7179;SDS011;3631;42.152;24.756;2022-07-05T09:10:59;9.65;;;3.88;;
7179;SDS011;3631;42.152;24.756;2022-07-05T09:13:33;5.07;;;3.42;;
7179;SDS011;3631;42.152;24.756;2022-07-05T09:16:01;7.72;;;4.00;;
7179;SDS011;3631;42.152;24.756;2022-07-05T09:18:45;9.00;;;3.83;;
7179;SDS011;3631;42.152;24.756;2022-07-05T09:21:14;4.85;;;4.03;;
7179;SDS011;3631;42.152;24.756;2022-07-05T09:23:42;4.68;;;3.40;;
7179;SDS011;3631;42.152;24.756;2022-07-05T09:26:09;6.13;;;3.85;;
7179;SDS011;3631;42.152;24.756;2022-07-05T09:28:36;5.53;;;3.80;;
7179;SDS011;3631;42.152;24.756;2022-07-05T09:31:04;9.48;;;4.22;;
7179;SDS011;3631;42.152;24.756;2022-07-05T09:33:31;4.20;;;3.90;;
7179;SDS011;3631;42.152;24.756;2022-07-05T09:36:00;8.35;;;3.70;;
7179;SDS011;3631;42.152;24.756;2022-07-05T09:38:27;10.02;;;4.13;;
7179;SDS011;3631;42.152;24.756;2022-07-05T09:40:55;14.32;;;4.07;;
7179;SDS011;3631;42.152;24.756;2022-07-05T09:43:23;5.00;;;4.00;;
7179;SDS011;3631;42.152;24.756;2022-07-05T09:45:55;8.13;;;3.72;;
7179;SDS011;3631;42.152;24.756;2022-07-05T09:48:24;9.20;;;4.43;;
7179;SDS011;3631;42.152;24.756;2022-07-05T09:50:51;10.75;;;4.05;;
7179;SDS011;3631;42.152;24.756;2022-07-05T09:53:19;6.57;;;3.67;;
7179;SDS011;3631;42.152;24.756;2022-07-05T09:58:28;3.70;;;3.40;;
7179;SDS011;3631;42.152;24.756;2022-07-05T10:00:55;8.63;;;3.90;;
7179;SDS011;3631;42.152;24.756;2022-07-05T10:03:22;4.13;;;3.67;;
7179;SDS011;3631;42.152;24.756;2022-07-05T10:05:49;4.43;;;3.70;;
7179;SDS011;3631;42.152;24.756;2022-07-05T10:08:16;8.90;;;3.78;;
7179;SDS011;3631;42.152;24.756;2022-07-05T10:10:47;4.97;;;2.92;;
7179;SDS011;3631;42.152;24.756;2022-07-05T10:13:18;5.18;;;3.40;;
7179;SDS011;3631;42.152;24.756;2022-07-05T10:15:45;10.15;;;3.83;;
7179;SDS011;3631;42.152;24.756;2022-07-05T10:18:12;6.25;;;3.38;;
7179;SDS011;3631;42.152;24.756;2022-07-05T10:20:42;9.05;;;3.60;;
7179;SDS011;3631;42.152;24.756;2022-07-05T10:23:11;6.72;;;3.55;;
7179;SDS011;3631;42.152;24.756;2022-07-05T10:25:39;7.88;;;3.78;;
7179;SDS011;3631;42.152;24.756;2022-07-05T10:28:08;4.75;;;3.13;;
7179;SDS011;3631;42.152;24.756;2022-07-05T10:30:36;7.72;;;3.38;;
7179;SDS011;3631;42.152;24.756;2022-07-05T10:33:04;5.70;;;4.18;;
7179;SDS011;3631;42.152;24.756;2022-07-05T10:35:33;6.88;;;4.15;;
7179;SDS011;3631;42.152;24.756;2022-07-05T10:38:01;4.95;;;3.83;;
7179;SDS011;3631;42.152;24.756;2022-07-05T10:40:30;3.90;;;3.40;;
7179;SDS011;3631;42.152;24.756;2022-07-05T10:42:59;8.05;;;3.47;;
7179;SDS011;3631;42.152;24.756;2022-07-05T10:45:30;5.20;;;3.80;;
7179;SDS011;3631;42.152;24.756;2022-07-05T10:48:14;7.93;;;3.97;;
7179;SDS011;3631;42.152;24.756;2022-07-05T10:50:43;3.80;;;3.60;;
7179;SDS011;3631;42.152;24.756;2022-07-05T10:53:11;8.20;;;3.92;;
7179;SDS011;3631;42.152;24.756;2022-07-05T10:55:51;6.65;;;4.22;;
7179;SDS011;3631;42.152;24.756;2022-07-05T10:58:25;7.05;;;4.25;;
7179;SDS011;3631;42.152;24.756;2022-07-05T11:06:58;6.45;;;4.10;;
7179;SDS011;3631;42.152;24.756;2022-07-05T11:09:25;4.80;;;4.20;;
7179;SDS011;3631;42.152;24.756;2022-07-05T11:12:06;4.57;;;4.20;;
7179;SDS011;3631;42.152;24.756;2022-07-05T11:14:37;4.40;;;4.05;;
7179;SDS011;3631;42.152;24.756;2022-07-05T11:17:14;5.40;;;3.88;;
7179;SDS011;3631;42.152;24.756;2022-07-05T11:22:39;4.40;;;4.10;;
7179;SDS011;3631;42.152;24.756;2022-07-05T11:25:08;10.60;;;4.30;;
7179;SDS011;3631;42.152;24.756;2022-07-05T11:27:37;8.75;;;4.68;;
7179;SDS011;3631;42.152;24.756;2022-07-05T11:30:31;4.90;;;4.45;;
7179;SDS011;3631;42.152;24.756;2022-07-05T11:33:25;5.72;;;5.05;;
7179;SDS011;3631;42.152;24.756;2022-07-05T11:35:57;8.05;;;4.78;;
7179;SDS011;3631;42.152;24.756;2022-07-05T11:38:24;8.02;;;4.78;;
7179;SDS011;3631;42.152;24.756;2022-07-05T11:40:52;5.13;;;4.82;;
7179;SDS011;3631;42.152;24.756;2022-07-05T11:43:26;5.25;;;4.80;;
7179;SDS011;3631;42.152;24.756;2022-07-05T11:45:57;6.25;;;4.78;;
7179;SDS011;3631;42.152;24.756;2022-07-05T11:48:25;11.75;;;4.55;;
7179;SDS011;3631;42.152;24.756;2022-07-05T11:50:53;11.50;;;4.38;;
7179;SDS011;3631;42.152;24.756;2022-07-05T11:53:28;5.32;;;4.47;;
7179;SDS011;3631;42.152;24.756;2022-07-05T11:55:57;5.43;;;4.93;;
7179;SDS011;3631;42.152;24.756;2022-07-05T11:58:29;7.95;;;4.93;;
7179;SDS011;3631;42.152;24.756;2022-07-05T12:00:58;5.00;;;4.43;;
7179;SDS011;3631;42.152;24.756;2022-07-05T12:03:26;5.30;;;4.90;;
7179;SDS011;3631;42.152;24.756;2022-07-05T12:05:54;5.53;;;4.80;;
7179;SDS011;3631;42.152;24.756;2022-07-05T12:08:21;5.28;;;4.78;;
7179;SDS011;3631;42.152;24.756;2022-07-05T12:10:50;6.82;;;4.90;;
7179;SDS011;3631;42.152;24.756;2022-07-05T12:13:42;5.60;;;4.95;;
7179;SDS011;3631;42.152;24.756;2022-07-05T12:16:10;6.55;;;4.65;;
7179;SDS011;3631;42.152;24.756;2022-07-05T12:18:45;5.10;;;4.68;;
7179;SDS011;3631;42.152;24.756;2022-07-05T12:21:16;6.43;;;4.43;;
7179;SDS011;3631;42.152;24.756;2022-07-05T12:23:46;5.18;;;4.78;;
7179;SDS011;3631;42.152;24.756;2022-07-05T12:26:15;5.15;;;4.65;;
7179;SDS011;3631;42.152;24.756;2022-07-05T12:28:44;7.88;;;5.38;;
7179;SDS011;3631;42.152;24.756;2022-07-05T12:31:15;6.07;;;5.68;;
7179;SDS011;3631;42.152;24.756;2022-07-05T12:33:43;6.40;;;5.50;;
7179;SDS011;3631;42.152;24.756;2022-07-05T12:36:11;7.05;;;4.97;;
7179;SDS011;3631;42.152;24.756;2022-07-05T12:38:40;5.03;;;4.50;;
7179;SDS011;3631;42.152;24.756;2022-07-05T12:41:07;6.25;;;5.18;;
7179;SDS011;3631;42.152;24.756;2022-07-05T12:43:48;4.95;;;4.32;;
7179;SDS011;3631;42.152;24.756;2022-07-05T12:46:17;5.32;;;4.68;;
7179;SDS011;3631;42.152;24.756;2022-07-05T12:48:44;5.85;;;5.43;;
7179;SDS011;3631;42.152;24.756;2022-07-05T12:51:30;7.85;;;5.80;;
7179;SDS011;3631;42.152;24.756;2022-07-05T12:53:58;6.35;;;5.85;;
7179;SDS011;3631;42.152;24.756;2022-07-05T12:56:46;6.47;;;5.15;;
7179;SDS011;3631;42.152;24.756;2022-07-05T12:59:32;5.47;;;4.90;;
7179;SDS011;3631;42.152;24.756;2022-07-05T13:01:59;6.82;;;5.20;;
7179;SDS011;3631;42.152;24.756;2022-07-05T13:04:26;6.90;;;5.90;;
7179;SDS011;3631;42.152;24.756;2022-07-05T13:06:54;6.03;;;5.30;;
7179;SDS011;3631;42.152;24.756;2022-07-05T13:09:32;5.18;;;4.72;;
7179;SDS011;3631;42.152;24.756;2022-07-05T13:12:07;8.45;;;4.97;;
7179;SDS011;3631;42.152;24.756;2022-07-05T13:14:37;10.25;;;5.45;;
7179;SDS011;3631;42.152;24.756;2022-07-05T13:17:05;6.60;;;5.10;;
7179;SDS011;3631;42.152;24.756;2022-07-05T13:19:32;5.93;;;5.53;;
7179;SDS011;3631;42.152;24.756;2022-07-05T13:21:59;5.05;;;4.72;;
7179;SDS011;3631;42.152;24.756;2022-07-05T13:24:27;8.73;;;5.22;;
7179;SDS011;3631;42.152;24.756;2022-07-05T13:26:54;13.95;;;5.07;;
7179;SDS011;3631;42.152;24.756;2022-07-05T13:29:21;6.85;;;4.93;;
7179;SDS011;3631;42.152;24.756;2022-07-05T13:31:49;8.45;;;5.38;;
7179;SDS011;3631;42.152;24.756;2022-07-05T13:34:16;5.97;;;5.35;;
7179;SDS011;3631;42.152;24.756;2022-07-05T13:36:44;9.77;;;6.13;;
7179;SDS011;3631;42.152;24.756;2022-07-05T13:39:11;6.10;;;5.30;;
7179;SDS011;3631;42.152;24.756;2022-07-05T13:41:38;9.55;;;5.43;;
7179;SDS011;3631;42.152;24.756;2022-07-05T13:44:05;5.68;;;5.28;;
7179;SDS011;3631;42.152;24.756;2022-07-05T13:46:32;7.40;;;5.72;;
7179;SDS011;3631;42.152;24.756;2022-07-05T13:49:00;6.63;;;6.18;;
7179;SDS011;3631;42.152;24.756;2022-07-05T13:51:27;6.38;;;5.80;;
7179;SDS011;3631;42.152;24.756;2022-07-05T13:53:54;8.32;;;5.93;;
7179;SDS011;3631;42.152;24.756;2022-07-05T13:56:22;8.38;;;5.90;;
7179;SDS011;3631;42.152;24.756;2022-07-05T13:58:49;6.00;;;5.18;;
7179;SDS011;3631;42.152;24.756;2022-07-05T14:01:16;6.95;;;6.35;;
7179;SDS011;3631;42.152;24.756;2022-07-05T14:03:45;8.55;;;5.75;;
7179;SDS011;3631;42.152;24.756;2022-07-05T14:06:13;7.70;;;5.82;;
7179;SDS011;3631;42.152;24.756;2022-07-05T14:08:40;6.60;;;5.90;;
7179;SDS011;3631;42.152;24.756;2022-07-05T14:11:08;8.27;;;6.00;;
7179;SDS011;3631;42.152;24.756;2022-07-05T14:13:37;6.00;;;5.50;;
7179;SDS011;3631;42.152;24.756;2022-07-05T14:16:05;9.20;;;5.63;;
7179;SDS011;3631;42.152;24.756;2022-07-05T14:18:32;8.40;;;5.38;;
7179;SDS011;3631;42.152;24.756;2022-07-05T14:21:00;6.30;;;5.80;;
7179;SDS011;3631;42.152;24.756;2022-07-05T14:23:28;6.53;;;5.88;;
7179;SDS011;3631;42.152;24.756;2022-07-05T14:25:57;5.93;;;5.28;;
7179;SDS011;3631;42.152;24.756;2022-07-05T14:28:24;6.47;;;5.82;;
7179;SDS011;3631;42.152;24.756;2022-07-05T14:30:51;7.28;;;5.57;;
7179;SDS011;3631;42.152;24.756;2022-07-05T14:33:18;6.30;;;5.68;;
7179;SDS011;3631;42.152;24.756;2022-07-05T14:35:46;6.45;;;5.70;;
7179;SDS011;3631;42.152;24.756;2022-07-05T14:38:13;6.40;;;5.68;;
7179;SDS011;3631;42.152;24.756;2022-07-05T14:40:41;5.95;;;5.25;;
7179;SDS011;3631;42.152;24.756;2022-07-05T14:43:08;5.85;;;5.35;;
7179;SDS011;3631;42.152;24.756;2022-07-05T14:45:35;6.57;;;5.97;;
7179;SDS011;3631;42.152;24.756;2022-07-05T14:48:02;5.82;;;5.32;;
7179;SDS011;3631;42.152;24.756;2022-07-05T14:50:29;6.45;;;5.40;;
7179;SDS011;3631;42.152;24.756;2022-07-05T14:52:56;6.13;;;5.10;;
7179;SDS011;3631;42.152;24.756;2022-07-05T14:55:23;5.85;;;5.35;;
7179;SDS011;3631;42.152;24.756;2022-07-05T14:57:52;8.57;;;5.70;;
7179;SDS011;3631;42.152;24.756;2022-07-05T15:00:19;9.63;;;5.63;;
7179;SDS011;3631;42.152;24.756;2022-07-05T15:02:45;5.38;;;4.97;;
7179;SDS011;3631;42.152;24.756;2022-07-05T15:05:12;8.90;;;5.35;;
7179;SDS011;3631;42.152;24.756;2022-07-05T15:07:39;5.72;;;5.20;;
7179;SDS011;3631;42.152;24.756;2022-07-05T15:10:07;5.82;;;5.07;;
7179;SDS011;3631;42.152;24.756;2022-07-05T15:12:35;6.35;;;4.95;;
7179;SDS011;3631;42.152;24.756;2022-07-05T15:15:03;8.88;;;5.15;;
7179;SDS011;3631;42.152;24.756;2022-07-05T15:17:31;5.60;;;5.10;;
7179;SDS011;3631;42.152;24.756;2022-07-05T15:19:59;6.32;;;5.82;;